Avon, Minnesota
Current Conditions -  °F | °C
As of 9:53 AM on Tuesday 21 Oct 2014 (Local Time) from KSTC Reporting Station
Clear Clear  
Wind Chill: 45°   Ceiling: Unl
Heat Index: 49°   Visibility: 10mi
Dew Point: 39°   Wind: 8mph
Humidity: 69%   Direction: 120°ESE
Pressure: 30.18"   Gusts: NA
Location:  45.61°N, 94.45°W
Report Text: KSTC 211453Z 12007KT 10SM CLR 09/04 A3018 RMK AO2 SLP234 T00940039 51008
Loading
Personal Weather Stations






























Interactive Weather Map
Tropical Storm Tracking
New forecast layout! Learn more

10-Day Weather Forecast

Advertisements
Track Severe Weather on mobile